createdAt,value
2023-01-24T10:49:21.778Z,0
2023-01-24T10:50:30.126Z,1095
2023-01-24T10:51:39.334Z,1102
2023-01-24T10:52:48.484Z,1057
2023-01-24T10:53:57.707Z,1014
2023-01-24T10:55:06.653Z,1023
2023-01-24T10:56:16.005Z,1059
2023-01-24T10:57:25.122Z,1072
2023-01-24T10:58:34.183Z,1096
2023-01-24T10:59:43.528Z,1072
2023-01-24T11:00:52.661Z,1085
2023-01-24T11:02:01.821Z,1091
2023-01-24T11:03:11.028Z,1070
2023-01-24T11:04:20.189Z,1047
2023-01-24T11:05:29.355Z,1114
2023-01-24T11:06:38.522Z,1080
2023-01-24T11:07:47.675Z,1077
2023-01-24T11:08:56.853Z,1090
2023-01-24T11:10:05.939Z,1109
2023-01-24T11:11:15.206Z,1151
2023-01-24T11:12:23.441Z,1130
2023-01-24T11:13:31.713Z,1087
2023-01-24T11:14:39.839Z,1112
2023-01-24T11:15:48.024Z,1101
2023-01-24T11:16:57.070Z,1139
2023-01-24T11:18:06.350Z,1127
2023-01-24T11:19:15.541Z,1097
2023-01-24T11:20:24.644Z,1194
2023-01-24T11:21:33.858Z,1235
2023-01-24T11:22:42.950Z,1312
2023-01-24T11:23:52.264Z,1317
2023-01-24T11:25:01.548Z,1279
2023-01-24T11:26:10.431Z,1419
2023-01-24T11:27:19.755Z,1387
2023-01-24T11:28:28.974Z,1326
2023-01-24T11:29:38.082Z,1327
2023-01-24T11:30:46.407Z,1369
2023-01-24T11:31:55.309Z,1336
2023-01-24T11:33:04.540Z,1359
2023-01-24T11:34:13.656Z,1344
2023-01-24T11:35:22.902Z,1317
2023-01-24T11:36:32.183Z,1245
